sensor_id;sensor_type;location;lat;lon;timestamp;pressure;altitude;pressure_sealevel;temperature;humidity
74090;BME280;62448;-26.094;27.994;2022-08-01T00:00:34;85305.26;;;12.44;15.70
74090;BME280;62448;-26.094;27.994;2022-08-01T00:03:17;85304.49;;;12.13;15.77
74090;BME280;62448;-26.094;27.994;2022-08-01T00:05:43;85304.96;;;12.16;15.44
74090;BME280;62448;-26.094;27.994;2022-08-01T00:08:08;85304.51;;;12.80;15.19
74090;BME280;62448;-26.094;27.994;2022-08-01T00:10:34;85302.30;;;12.99;14.99
74090;BME280;62448;-26.094;27.994;2022-08-01T00:12:59;85299.34;;;13.06;14.95
74090;BME280;62448;-26.094;27.994;2022-08-01T00:15:25;85303.32;;;12.87;15.05
74090;BME280;62448;-26.094;27.994;2022-08-01T00:17:50;85308.73;;;12.84;15.07
74090;BME280;62448;-26.094;27.994;2022-08-01T00:20:16;85304.42;;;12.70;15.08
74090;BME280;62448;-26.094;27.994;2022-08-01T00:22:41;85304.00;;;12.74;15.03
74090;BME280;62448;-26.094;27.994;2022-08-01T00:25:08;85301.71;;;13.09;14.96
74090;BME280;62448;-26.094;27.994;2022-08-01T00:27:33;85301.76;;;12.96;14.98
74090;BME280;62448;-26.094;27.994;2022-08-01T00:29:58;85305.55;;;13.05;14.95
74090;BME280;62448;-26.094;27.994;2022-08-01T00:32:23;85305.13;;;12.89;15.08
74090;BME280;62448;-26.094;27.994;2022-08-01T00:34:48;85304.17;;;13.12;14.96
74090;BME280;62448;-26.094;27.994;2022-08-01T00:37:14;85304.98;;;12.99;15.04
74090;BME280;62448;-26.094;27.994;2022-08-01T00:39:39;85304.22;;;13.02;15.16
74090;BME280;62448;-26.094;27.994;2022-08-01T00:42:07;85308.48;;;12.46;15.57
74090;BME280;62448;-26.094;27.994;2022-08-01T00:44:30;85309.95;;;12.53;15.79
74090;BME280;62448;-26.094;27.994;2022-08-01T00:46:56;85318.40;;;12.33;15.88
74090;BME280;62448;-26.094;27.994;2022-08-01T00:49:22;85311.64;;;12.20;16.01
74090;BME280;62448;-26.094;27.994;2022-08-01T00:51:46;85316.19;;;11.92;16.18
74090;BME280;62448;-26.094;27.994;2022-08-01T00:54:13;85308.19;;;12.09;16.10
74090;BME280;62448;-26.094;27.994;2022-08-01T00:56:38;85315.50;;;11.97;16.24
74090;BME280;62448;-26.094;27.994;2022-08-01T00:59:04;85315.33;;;11.92;16.27
74090;BME280;62448;-26.094;27.994;2022-08-01T01:01:28;85318.61;;;11.99;16.28
74090;BME280;62448;-26.094;27.994;2022-08-01T01:03:53;85314.76;;;11.50;16.25
74090;BME280;62448;-26.094;27.994;2022-08-01T01:06:27;85319.77;;;12.34;15.84
74090;BME280;62448;-26.094;27.994;2022-08-01T01:08:50;85314.41;;;12.24;15.65
74090;BME280;62448;-26.094;27.994;2022-08-01T01:11:16;85318.65;;;12.44;15.57
74090;BME280;62448;-26.094;27.994;2022-08-01T01:13:41;85321.95;;;12.49;15.50
74090;BME280;62448;-26.094;27.994;2022-08-01T01:16:06;85321.86;;;12.53;15.48
74090;BME280;62448;-26.094;27.994;2022-08-01T01:18:33;85322.10;;;12.60;15.46
74090;BME280;62448;-26.094;27.994;2022-08-01T01:20:58;85327.01;;;12.68;15.42
74090;BME280;62448;-26.094;27.994;2022-08-01T01:23:29;85330.53;;;12.38;15.58
74090;BME280;62448;-26.094;27.994;2022-08-01T01:25:59;85331.18;;;12.59;15.49
74090;BME280;62448;-26.094;27.994;2022-08-01T01:28:15;85332.76;;;12.72;15.43
74090;BME280;62448;-26.094;27.994;2022-08-01T01:30:34;85333.28;;;12.50;15.45
74090;BME280;62448;-26.094;27.994;2022-08-01T01:33:02;85332.91;;;12.57;15.51
74090;BME280;62448;-26.094;27.994;2022-08-01T01:35:28;85332.75;;;12.76;15.55
74090;BME280;62448;-26.094;27.994;2022-08-01T01:37:54;85335.91;;;12.58;15.59
74090;BME280;62448;-26.094;27.994;2022-08-01T01:40:16;85334.85;;;12.43;15.94
74090;BME280;62448;-26.094;27.994;2022-08-01T01:42:42;85335.69;;;12.01;16.30
74090;BME280;62448;-26.094;27.994;2022-08-01T01:45:07;85336.87;;;11.83;16.49
74090;BME280;62448;-26.094;27.994;2022-08-01T01:47:32;85334.37;;;11.96;16.56
74090;BME280;62448;-26.094;27.994;2022-08-01T01:49:57;85334.59;;;11.97;16.70
74090;BME280;62448;-26.094;27.994;2022-08-01T01:52:23;85342.10;;;11.89;16.65
74090;BME280;62448;-26.094;27.994;2022-08-01T01:54:49;85344.99;;;11.49;16.79
74090;BME280;62448;-26.094;27.994;2022-08-01T01:57:13;85354.34;;;11.56;16.90
74090;BME280;62448;-26.094;27.994;2022-08-01T01:59:39;85353.95;;;11.64;16.92
74090;BME280;62448;-26.094;27.994;2022-08-01T02:02:04;85356.46;;;11.84;16.84
74090;BME280;62448;-26.094;27.994;2022-08-01T02:04:30;85353.05;;;11.06;16.94
74090;BME280;62448;-26.094;27.994;2022-08-01T02:06:56;85342.83;;;11.24;16.65
74090;BME280;62448;-26.094;27.994;2022-08-01T02:09:21;85333.86;;;11.57;16.33
74090;BME280;62448;-26.094;27.994;2022-08-01T02:11:47;85331.50;;;11.84;16.21
74090;BME280;62448;-26.094;27.994;2022-08-01T02:14:11;85334.20;;;11.93;16.10
74090;BME280;62448;-26.094;27.994;2022-08-01T02:16:39;85336.16;;;12.03;16.02
74090;BME280;62448;-26.094;27.994;2022-08-01T02:19:02;85341.68;;;12.20;15.98
74090;BME280;62448;-26.094;27.994;2022-08-01T02:21:30;85340.77;;;12.11;15.98
74090;BME280;62448;-26.094;27.994;2022-08-01T02:23:53;85336.25;;;12.57;15.91
74090;BME280;62448;-26.094;27.994;2022-08-01T02:26:18;85334.85;;;12.37;15.86
74090;BME280;62448;-26.094;27.994;2022-08-01T02:28:47;85337.03;;;12.15;16.08
74090;BME280;62448;-26.094;27.994;2022-08-01T02:31:12;85334.74;;;11.95;16.10
74090;BME280;62448;-26.094;27.994;2022-08-01T02:33:39;85329.07;;;12.64;15.92
74090;BME280;62448;-26.094;27.994;2022-08-01T02:36:00;85326.31;;;12.37;15.95
74090;BME280;62448;-26.094;27.994;2022-08-01T02:38:28;85333.44;;;12.74;16.11
74090;BME280;62448;-26.094;27.994;2022-08-01T02:40:52;85331.77;;;11.57;16.66
74090;BME280;62448;-26.094;27.994;2022-08-01T02:43:21;85332.25;;;11.94;16.75
74090;BME280;62448;-26.094;27.994;2022-08-01T02:45:45;85331.09;;;11.61;16.99
74090;BME280;62448;-26.094;27.994;2022-08-01T02:48:10;85331.74;;;11.79;17.05
74090;BME280;62448;-26.094;27.994;2022-08-01T02:50:32;85335.75;;;11.37;17.06
74090;BME280;62448;-26.094;27.994;2022-08-01T02:52:57;85336.00;;;11.43;17.19
74090;BME280;62448;-26.094;27.994;2022-08-01T02:55:23;85337.08;;;11.51;17.22
74090;BME280;62448;-26.094;27.994;2022-08-01T02:57:50;85334.22;;;11.39;17.37
74090;BME280;62448;-26.094;27.994;2022-08-01T03:00:15;85330.90;;;11.30;17.38
74090;BME280;62448;-26.094;27.994;2022-08-01T03:02:40;85328.88;;;11.61;17.28
74090;BME280;62448;-26.094;27.994;2022-08-01T03:05:07;85323.41;;;11.57;17.16
74090;BME280;62448;-26.094;27.994;2022-08-01T03:07:31;85318.21;;;11.62;16.78
74090;BME280;62448;-26.094;27.994;2022-08-01T03:09:56;85315.59;;;11.96;16.62
74090;BME280;62448;-26.094;27.994;2022-08-01T03:12:25;85310.81;;;12.38;16.29
74090;BME280;62448;-26.094;27.994;2022-08-01T03:14:49;85311.91;;;11.84;16.56
74090;BME280;62448;-26.094;27.994;2022-08-01T03:17:13;85309.53;;;11.85;16.36
74090;BME280;62448;-26.094;27.994;2022-08-01T03:19:39;85306.88;;;12.24;16.32
74090;BME280;62448;-26.094;27.994;2022-08-01T03:22:03;85311.61;;;11.96;16.44
74090;BME280;62448;-26.094;27.994;2022-08-01T03:24:29;85313.21;;;12.26;16.24
74090;BME280;62448;-26.094;27.994;2022-08-01T03:26:54;85315.72;;;11.96;16.36
74090;BME280;62448;-26.094;27.994;2022-08-01T03:29:22;85317.68;;;12.23;16.29
74090;BME280;62448;-26.094;27.994;2022-08-01T03:31:46;85320.24;;;12.07;16.29
74090;BME280;62448;-26.094;27.994;2022-08-01T03:34:10;85319.71;;;11.92;16.25
74090;BME280;62448;-26.094;27.994;2022-08-01T03:36:42;85315.52;;;11.61;16.41
74090;BME280;62448;-26.094;27.994;2022-08-01T03:39:03;85318.56;;;11.96;16.75
74090;BME280;62448;-26.094;27.994;2022-08-01T03:41:28;85315.42;;;11.78;16.88
74090;BME280;62448;-26.094;27.994;2022-08-01T03:43:55;85318.01;;;12.03;16.93
74090;BME280;62448;-26.094;27.994;2022-08-01T03:46:25;85323.62;;;11.85;17.15
74090;BME280;62448;-26.094;27.994;2022-08-01T03:48:46;85332.20;;;11.24;17.30
74090;BME280;62448;-26.094;27.994;2022-08-01T03:51:09;85336.00;;;11.67;17.25
74090;BME280;62448;-26.094;27.994;2022-08-01T03:53:35;85338.06;;;11.37;17.37
74090;BME280;62448;-26.094;27.994;2022-08-01T03:56:01;85346.40;;;11.23;17.58
74090;BME280;62448;-26.094;27.994;2022-08-01T03:58:25;85352.66;;;11.29;17.66
74090;BME280;62448;-26.094;27.994;2022-08-01T04:00:50;85357.90;;;10.52;17.95
74090;BME280;62448;-26.094;27.994;2022-08-01T04:03:15;85364.65;;;10.90;18.42
74090;BME280;62448;-26.094;27.994;2022-08-01T04:05:41;85366.67;;;11.05;18.29
74090;BME280;62448;-26.094;27.994;2022-08-01T04:08:06;85365.65;;;10.98;18.45
74090;BME280;62448;-26.094;27.994;2022-08-01T04:10:32;85368.64;;;11.10;18.41
74090;BME280;62448;-26.094;27.994;2022-08-01T04:12:58;85368.80;;;11.62;18.16
74090;BME280;62448;-26.094;27.994;2022-08-01T04:15:23;85365.30;;;11.78;18.03
74090;BME280;62448;-26.094;27.994;2022-08-01T04:17:48;85372.68;;;11.87;17.90
74090;BME280;62448;-26.094;27.994;2022-08-01T04:20:14;85375.01;;;11.62;17.98
74090;BME280;62448;-26.094;27.994;2022-08-01T04:22:39;85386.59;;;11.60;18.24
74090;BME280;62448;-26.094;27.994;2022-08-01T04:25:13;85388.97;;;11.51;18.54
74090;BME280;62448;-26.094;27.994;2022-08-01T04:27:32;85399.33;;;11.23;18.74
74090;BME280;62448;-26.094;27.994;2022-08-01T04:29:57;85400.71;;;11.21;18.74
74090;BME280;62448;-26.094;27.994;2022-08-01T04:32:22;85401.75;;;11.26;18.87
74090;BME280;62448;-26.094;27.994;2022-08-01T04:34:46;85400.80;;;11.15;19.06
74090;BME280;62448;-26.094;27.994;2022-08-01T04:37:13;85404.85;;;11.55;19.25
74090;BME280;62448;-26.094;27.994;2022-08-01T04:39:37;85405.97;;;11.42;19.51
74090;BME280;62448;-26.094;27.994;2022-08-01T04:42:04;85412.32;;;11.78;19.22
74090;BME280;62448;-26.094;27.994;2022-08-01T04:44:28;85419.32;;;11.48;19.38
74090;BME280;62448;-26.094;27.994;2022-08-01T04:46:54;85422.44;;;11.79;19.22
74090;BME280;62448;-26.094;27.994;2022-08-01T04:49:19;85425.48;;;11.40;19.32
74090;BME280;62448;-26.094;27.994;2022-08-01T04:51:52;85431.18;;;11.86;19.13
74090;BME280;62448;-26.094;27.994;2022-08-01T04:54:09;85433.96;;;11.56;19.17
74090;BME280;62448;-26.094;27.994;2022-08-01T04:56:34;85434.15;;;11.83;19.05
74090;BME280;62448;-26.094;27.994;2022-08-01T04:59:00;85437.02;;;11.98;19.03
74090;BME280;62448;-26.094;27.994;2022-08-01T05:01:26;85439.52;;;11.55;19.00
74090;BME280;62448;-26.094;27.994;2022-08-01T05:03:52;85441.71;;;11.89;18.93
74090;BME280;62448;-26.094;27.994;2022-08-01T05:06:17;85445.56;;;11.44;18.65
74090;BME280;62448;-26.094;27.994;2022-08-01T05:08:43;85445.22;;;11.71;18.25
74090;BME280;62448;-26.094;27.994;2022-08-01T05:11:08;85449.46;;;11.62;18.00
74090;BME280;62448;-26.094;27.994;2022-08-01T05:13:33;85447.86;;;11.76;18.03
74090;BME280;62448;-26.094;27.994;2022-08-01T05:15:59;85456.59;;;11.71;17.83
74090;BME280;62448;-26.094;27.994;2022-08-01T05:18:24;85455.30;;;12.28;17.54
74090;BME280;62448;-26.094;27.994;2022-08-01T05:20:49;85459.14;;;11.89;17.53
74090;BME280;62448;-26.094;27.994;2022-08-01T05:23:15;85461.82;;;12.17;17.50
74090;BME280;62448;-26.094;27.994;2022-08-01T05:25:40;85465.49;;;12.43;17.51
74090;BME280;62448;-26.094;27.994;2022-08-01T05:28:06;85470.67;;;11.63;17.66
74090;BME280;62448;-26.094;27.994;2022-08-01T05:30:32;85472.66;;;11.58;17.55
74090;BME280;62448;-26.094;27.994;2022-08-01T05:32:57;85475.47;;;12.11;17.52
74090;BME280;62448;-26.094;27.994;2022-08-01T05:35:22;85472.06;;;11.77;17.85
74090;BME280;62448;-26.094;27.994;2022-08-01T05:37:48;85477.64;;;11.07;18.33
74090;BME280;62448;-26.094;27.994;2022-08-01T05:40:14;85482.25;;;11.46;18.34
74090;BME280;62448;-26.094;27.994;2022-08-01T05:42:40;85482.40;;;11.24;18.62
74090;BME280;62448;-26.094;27.994;2022-08-01T05:45:06;85480.71;;;11.56;18.50
74090;BME280;62448;-26.094;27.994;2022-08-01T05:47:30;85485.18;;;10.94;18.95
74090;BME280;62448;-26.094;27.994;2022-08-01T05:49:55;85487.06;;;10.78;19.08
74090;BME280;62448;-26.094;27.994;2022-08-01T05:52:21;85481.85;;;11.41;18.91
74090;BME280;62448;-26.094;27.994;2022-08-01T05:54:47;85495.53;;;11.03;19.26
74090;BME280;62448;-26.094;27.994;2022-08-01T05:57:12;85497.94;;;10.38;19.48
74090;BME280;62448;-26.094;27.994;2022-08-01T05:59:37;85507.19;;;11.10;19.30
74090;BME280;62448;-26.094;27.994;2022-08-01T06:02:03;85506.90;;;11.39;18.99
74090;BME280;62448;-26.094;27.994;2022-08-01T06:04:46;85515.21;;;11.10;19.11
74090;BME280;62448;-26.094;27.994;2022-08-01T06:07:11;85517.90;;;10.85;18.94
74090;BME280;62448;-26.094;27.994;2022-08-01T06:09:36;85520.72;;;11.28;18.78
74090;BME280;62448;-26.094;27.994;2022-08-01T06:12:02;85528.44;;;11.60;18.56
74090;BME280;62448;-26.094;27.994;2022-08-01T06:14:28;85526.99;;;11.30;18.47
74090;BME280;62448;-26.094;27.994;2022-08-01T06:16:53;85533.12;;;12.12;18.24
74090;BME280;62448;-26.094;27.994;2022-08-01T06:19:19;85532.60;;;11.40;18.54
74090;BME280;62448;-26.094;27.994;2022-08-01T06:21:44;85531.32;;;11.10;18.53
74090;BME280;62448;-26.094;27.994;2022-08-01T06:24:09;85535.15;;;11.22;18.64
74090;BME280;62448;-26.094;27.994;2022-08-01T06:26:34;85533.72;;;11.69;18.74
74090;BME280;62448;-26.094;27.994;2022-08-01T06:28:59;85536.62;;;11.51;18.51
74090;BME280;62448;-26.094;27.994;2022-08-01T06:31:25;85541.95;;;11.38;18.69
74090;BME280;62448;-26.094;27.994;2022-08-01T06:33:50;85540.47;;;11.72;18.98
74090;BME280;62448;-26.094;27.994;2022-08-01T06:36:15;85544.05;;;11.31;19.34
74090;BME280;62448;-26.094;27.994;2022-08-01T06:38:41;85547.88;;;11.09;19.69
74090;BME280;62448;-26.094;27.994;2022-08-01T06:41:06;85553.84;;;10.49;20.12
74090;BME280;62448;-26.094;27.994;2022-08-01T06:43:32;85552.48;;;11.02;20.05
74090;BME280;62448;-26.094;27.994;2022-08-01T06:45:57;85550.65;;;10.91;20.21
74090;BME280;62448;-26.094;27.994;2022-08-01T06:48:23;85552.45;;;10.86;20.32
74090;BME280;62448;-26.094;27.994;2022-08-01T06:50:49;85557.94;;;10.75;20.43
74090;BME280;62448;-26.094;27.994;2022-08-01T06:53:14;85558.15;;;10.99;20.45
74090;BME280;62448;-26.094;27.994;2022-08-01T06:55:39;85560.75;;;10.59;20.49
74090;BME280;62448;-26.094;27.994;2022-08-01T06:58:05;85562.37;;;10.50;20.68
74090;BME280;62448;-26.094;27.994;2022-08-01T07:00:30;85566.39;;;10.70;20.49
74090;BME280;62448;-26.094;27.994;2022-08-01T07:02:58;85568.45;;;10.72;20.46
74090;BME280;62448;-26.094;27.994;2022-08-01T07:05:22;85570.88;;;10.34;20.45
74090;BME280;62448;-26.094;27.994;2022-08-01T07:07:47;85567.09;;;11.09;19.84
74090;BME280;62448;-26.094;27.994;2022-08-01T07:10:12;85567.05;;;12.01;19.09
74090;BME280;62448;-26.094;27.994;2022-08-01T07:12:38;85573.68;;;11.79;18.90
74090;BME280;62448;-26.094;27.994;2022-08-01T07:15:04;85580.39;;;11.93;18.75
74090;BME280;62448;-26.094;27.994;2022-08-01T07:17:29;85581.85;;;11.89;18.69
74090;BME280;62448;-26.094;27.994;2022-08-01T07:19:54;85585.01;;;11.51;18.80
74090;BME280;62448;-26.094;27.994;2022-08-01T07:22:20;85589.15;;;11.99;18.58
74090;BME280;62448;-26.094;27.994;2022-08-01T07:24:45;85583.83;;;11.83;18.55
74090;BME280;62448;-26.094;27.994;2022-08-01T07:27:10;85586.86;;;12.11;18.19
74090;BME280;62448;-26.094;27.994;2022-08-01T07:29:35;85589.19;;;12.90;18.18
74090;BME280;62448;-26.094;27.994;2022-08-01T07:32:01;85590.44;;;12.09;18.78
74090;BME280;62448;-26.094;27.994;2022-08-01T07:34:27;85592.33;;;11.31;19.21
74090;BME280;62448;-26.094;27.994;2022-08-01T07:36:53;85596.60;;;11.37;19.50
74090;BME280;62448;-26.094;27.994;2022-08-01T07:39:18;85595.33;;;10.83;19.78
74090;BME280;62448;-26.094;27.994;2022-08-01T07:41:44;85600.87;;;10.88;19.90
74090;BME280;62448;-26.094;27.994;2022-08-01T07:44:08;85596.00;;;11.03;20.04
74090;BME280;62448;-26.094;27.994;2022-08-01T07:46:33;85596.10;;;10.82;20.15
74090;BME280;62448;-26.094;27.994;2022-08-01T07:48:59;85590.71;;;10.70;20.29
74090;BME280;62448;-26.094;27.994;2022-08-01T07:51:24;85596.19;;;10.47;20.41
74090;BME280;62448;-26.094;27.994;2022-08-01T07:53:49;85601.36;;;10.49;20.40
74090;BME280;62448;-26.094;27.994;2022-08-01T07:56:15;85588.82;;;10.69;20.27
74090;BME280;62448;-26.094;27.994;2022-08-01T07:58:41;85592.42;;;11.17;20.28
74090;BME280;62448;-26.094;27.994;2022-08-01T08:01:06;85595.77;;;11.02;20.36
74090;BME280;62448;-26.094;27.994;2022-08-01T08:03:32;85597.58;;;10.60;20.38
74090;BME280;62448;-26.094;27.994;2022-08-01T08:05:58;85596.04;;;10.44;20.38
74090;BME280;62448;-26.094;27.994;2022-08-01T08:08:23;85593.43;;;11.09;19.96
74090;BME280;62448;-26.094;27.994;2022-08-01T08:10:48;85590.37;;;11.30;19.57
74090;BME280;62448;-26.094;27.994;2022-08-01T08:13:14;85596.13;;;10.99;19.66
74090;BME280;62448;-26.094;27.994;2022-08-01T08:15:39;85590.43;;;11.24;19.49
74090;BME280;62448;-26.094;27.994;2022-08-01T08:18:05;85594.02;;;11.47;19.37
74090;BME280;62448;-26.094;27.994;2022-08-01T08:20:31;85594.97;;;11.37;19.39
74090;BME280;62448;-26.094;27.994;2022-08-01T08:22:56;85599.76;;;11.71;19.23
74090;BME280;62448;-26.094;27.994;2022-08-01T08:25:22;85591.47;;;11.36;19.54
74090;BME280;62448;-26.094;27.994;2022-08-01T08:27:46;85590.42;;;11.12;20.04
74090;BME280;62448;-26.094;27.994;2022-08-01T08:30:12;85589.43;;;11.59;19.83
74090;BME280;62448;-26.094;27.994;2022-08-01T08:32:37;85584.57;;;11.35;19.96
74090;BME280;62448;-26.094;27.994;2022-08-01T08:35:03;85592.68;;;11.01;20.17
74090;BME280;62448;-26.094;27.994;2022-08-01T08:37:28;85593.31;;;11.02;20.21
74090;BME280;62448;-26.094;27.994;2022-08-01T08:39:53;85592.05;;;11.50;20.09
74090;BME280;62448;-26.094;27.994;2022-08-01T08:42:19;85590.05;;;11.14;20.35
74090;BME280;62448;-26.094;27.994;2022-08-01T08:44:44;85588.65;;;11.34;20.18
74090;BME280;62448;-26.094;27.994;2022-08-01T08:47:11;85587.59;;;11.13;20.41
74090;BME280;62448;-26.094;27.994;2022-08-01T08:49:36;85586.26;;;10.95;20.38
74090;BME280;62448;-26.094;27.994;2022-08-01T08:52:02;85587.21;;;10.90;20.52
74090;BME280;62448;-26.094;27.994;2022-08-01T08:54:27;85586.00;;;11.36;20.34
74090;BME280;62448;-26.094;27.994;2022-08-01T08:56:52;85582.20;;;11.18;20.48
74090;BME280;62448;-26.094;27.994;2022-08-01T08:59:17;85583.49;;;11.32;20.41
74090;BME280;62448;-26.094;27.994;2022-08-01T09:01:43;85578.39;;;11.50;20.36
74090;BME280;62448;-26.094;27.994;2022-08-01T09:04:07;85575.81;;;11.25;20.52
74090;BME280;62448;-26.094;27.994;2022-08-01T09:06:32;85573.84;;;10.62;20.58
74090;BME280;62448;-26.094;27.994;2022-08-01T09:08:58;85570.19;;;10.81;20.33
74090;BME280;62448;-26.094;27.994;2022-08-01T09:11:23;85572.36;;;11.21;20.10
74090;BME280;62448;-26.094;27.994;2022-08-01T09:14:03;85569.41;;;11.38;19.94
74090;BME280;62448;-26.094;27.994;2022-08-01T09:16:17;85561.89;;;11.33;19.94
74090;BME280;62448;-26.094;27.994;2022-08-01T09:18:41;85568.93;;;11.51;19.97
74090;BME280;62448;-26.094;27.994;2022-08-01T09:21:12;85563.20;;;11.80;19.74
74090;BME280;62448;-26.094;27.994;2022-08-01T09:23:32;85571.21;;;11.14;20.31
74090;BME280;62448;-26.094;27.994;2022-08-01T09:25:56;85563.97;;;11.13;20.48
74090;BME280;62448;-26.094;27.994;2022-08-01T09:28:28;85560.34;;;10.75;20.77
74090;BME280;62448;-26.094;27.994;2022-08-01T09:30:47;85558.15;;;11.63;20.42
74090;BME280;62448;-26.094;27.994;2022-08-01T09:33:13;85559.61;;;11.01;20.57
74090;BME280;62448;-26.094;27.994;2022-08-01T09:35:39;85553.79;;;10.40;20.77
74090;BME280;62448;-26.094;27.994;2022-08-01T09:38:17;85546.01;;;11.46;20.55
74090;BME280;62448;-26.094;27.994;2022-08-01T09:40:46;85546.06;;;11.25;20.54
74090;BME280;62448;-26.094;27.994;2022-08-01T09:43:11;85543.74;;;11.06;20.65
74090;BME280;62448;-26.094;27.994;2022-08-01T09:45:36;85542.13;;;11.20;20.57
74090;BME280;62448;-26.094;27.994;2022-08-01T09:47:48;85537.84;;;10.88;20.68
74090;BME280;62448;-26.094;27.994;2022-08-01T09:50:11;85539.73;;;10.83;20.68
74090;BME280;62448;-26.094;27.994;2022-08-01T09:52:37;85538.54;;;11.61;20.41
74090;BME280;62448;-26.094;27.994;2022-08-01T09:55:05;85539.48;;;11.21;20.34
74090;BME280;62448;-26.094;27.994;2022-08-01T09:57:29;85529.82;;;11.27;20.35
74090;BME280;62448;-26.094;27.994;2022-08-01T09:59:55;85525.57;;;11.47;20.16
74090;BME280;62448;-26.094;27.994;2022-08-01T10:02:30;85527.84;;;10.60;20.54
74090;BME280;62448;-26.094;27.994;2022-08-01T10:04:48;85528.20;;;10.72;20.44
74090;BME280;62448;-26.094;27.994;2022-08-01T10:07:10;85529.01;;;11.38;19.79
74090;BME280;62448;-26.094;27.994;2022-08-01T10:09:36;85523.04;;;12.02;19.25
74090;BME280;62448;-26.094;27.994;2022-08-01T10:12:02;85522.30;;;11.91;19.22
74090;BME280;62448;-26.094;27.994;2022-08-01T10:14:27;85516.43;;;12.15;19.34
74090;BME280;62448;-26.094;27.994;2022-08-01T10:16:52;85514.05;;;11.67;19.64
74090;BME280;62448;-26.094;27.994;2022-08-01T10:19:17;85518.00;;;11.60;19.82
74090;BME280;62448;-26.094;27.994;2022-08-01T10:21:42;85514.21;;;11.03;19.95
74090;BME280;62448;-26.094;27.994;2022-08-01T10:24:09;85515.42;;;11.08;19.94
74090;BME280;62448;-26.094;27.994;2022-08-01T10:26:34;85509.80;;;11.15;19.94
74090;BME280;62448;-26.094;27.994;2022-08-01T10:28:58;85503.88;;;10.96;19.93
74090;BME280;62448;-26.094;27.994;2022-08-01T10:31:24;85509.39;;;11.04;20.00
74090;BME280;62448;-26.094;27.994;2022-08-01T10:33:50;85501.38;;;11.17;19.88
74090;BME280;62448;-26.094;27.994;2022-08-01T10:36:16;85504.95;;;10.90;19.87
74090;BME280;62448;-26.094;27.994;2022-08-01T10:38:40;85503.38;;;10.87;19.90
74090;BME280;62448;-26.094;27.994;2022-08-01T10:41:05;85497.94;;;11.12;19.67
74090;BME280;62448;-26.094;27.994;2022-08-01T10:43:30;85496.96;;;11.23;19.83
74090;BME280;62448;-26.094;27.994;2022-08-01T10:45:56;85498.09;;;11.20;19.76
74090;BME280;62448;-26.094;27.994;2022-08-01T10:48:26;85499.73;;;10.84;19.69
74090;BME280;62448;-26.094;27.994;2022-08-01T10:50:49;85489.93;;;10.80;19.74
74090;BME280;62448;-26.094;27.994;2022-08-01T10:53:15;85492.63;;;11.26;19.56
74090;BME280;62448;-26.094;27.994;2022-08-01T10:55:59;85487.40;;;11.04;19.57
74090;BME280;62448;-26.094;27.994;2022-08-01T10:58:08;85483.20;;;10.87;19.62
74090;BME280;62448;-26.094;27.994;2022-08-01T11:00:29;85481.31;;;11.20;19.49
74090;BME280;62448;-26.094;27.994;2022-08-01T11:02:59;85485.75;;;10.80;19.54
74090;BME280;62448;-26.094;27.994;2022-08-01T11:05:20;85478.12;;;11.25;19.45
74090;BME280;62448;-26.094;27.994;2022-08-01T11:07:48;85476.94;;;11.09;19.04
74090;BME280;62448;-26.094;27.994;2022-08-01T11:10:30;85470.70;;;11.85;18.65
74090;BME280;62448;-26.094;27.994;2022-08-01T11:12:41;85467.28;;;11.52;18.55
74090;BME280;62448;-26.094;27.994;2022-08-01T11:15:20;85462.54;;;11.76;18.34
74090;BME280;62448;-26.094;27.994;2022-08-01T11:17:32;85464.91;;;11.90;18.61
74090;BME280;62448;-26.094;27.994;2022-08-01T11:20:11;85465.18;;;11.98;18.75
74090;BME280;62448;-26.094;27.994;2022-08-01T11:22:19;85460.22;;;11.83;18.87
74090;BME280;62448;-26.094;27.994;2022-08-01T11:25:00;85458.45;;;11.55;18.96
74090;BME280;62448;-26.094;27.994;2022-08-01T11:27:18;85447.96;;;11.50;18.98
74090;BME280;62448;-26.094;27.994;2022-08-01T11:29:35;85449.81;;;11.67;19.30
74090;BME280;62448;-26.094;27.994;2022-08-01T11:32:24;85450.46;;;11.85;19.75
74090;BME280;62448;-26.094;27.994;2022-08-01T11:34:54;85448.64;;;12.10;20.06
74090;BME280;62448;-26.094;27.994;2022-08-01T11:37:23;85448.12;;;11.83;20.28
74090;BME280;62448;-26.094;27.994;2022-08-01T11:39:18;85446.39;;;12.01;20.25
74090;BME280;62448;-26.094;27.994;2022-08-01T11:41:43;85442.67;;;12.11;20.34
74090;BME280;62448;-26.094;27.994;2022-08-01T11:44:09;85443.01;;;11.99;20.61
74090;BME280;62448;-26.094;27.994;2022-08-01T11:47:06;85439.69;;;11.98;21.04
74090;BME280;62448;-26.094;27.994;2022-08-01T11:49:24;85435.58;;;11.97;21.26
74090;BME280;62448;-26.094;27.994;2022-08-01T11:51:24;85438.59;;;12.21;21.19
74090;BME280;62448;-26.094;27.994;2022-08-01T11:53:50;85436.51;;;12.30;21.39
74090;BME280;62448;-26.094;27.994;2022-08-01T11:56:16;85436.65;;;12.29;21.77
74090;BME280;62448;-26.094;27.994;2022-08-01T11:58:40;85441.80;;;12.14;22.25
74090;BME280;62448;-26.094;27.994;2022-08-01T12:01:07;85438.81;;;12.10;22.56
74090;BME280;62448;-26.094;27.994;2022-08-01T12:03:32;85440.33;;;12.48;22.05
74090;BME280;62448;-26.094;27.994;2022-08-01T12:06:14;85432.81;;;11.81;22.56
74090;BME280;62448;-26.094;27.994;2022-08-01T12:08:39;85427.22;;;12.25;21.88
74090;BME280;62448;-26.094;27.994;2022-08-01T12:11:05;85422.34;;;12.80;21.39
74090;BME280;62448;-26.094;27.994;2022-08-01T12:13:40;85428.24;;;12.95;21.66
74090;BME280;62448;-26.094;27.994;2022-08-01T12:15:55;85422.40;;;13.18;21.42
74090;BME280;62448;-26.094;27.994;2022-08-01T12:18:21;85426.60;;;12.81;21.76
74090;BME280;62448;-26.094;27.994;2022-08-01T12:20:46;85419.48;;;12.16;22.11
74090;BME280;62448;-26.094;27.994;2022-08-01T12:23:13;85419.81;;;12.37;22.03
74090;BME280;62448;-26.094;27.994;2022-08-01T12:25:37;85419.73;;;12.10;21.96
74090;BME280;62448;-26.094;27.994;2022-08-01T12:28:03;85417.74;;;12.79;21.36
74090;BME280;62448;-26.094;27.994;2022-08-01T12:30:28;85416.44;;;12.52;21.38